createdAt,value
2023-04-01T00:00:19.885Z,1.50
2023-04-01T00:03:29.213Z,1.30
2023-04-01T00:06:38.214Z,1.30
2023-04-01T00:09:52.896Z,1.40
2023-04-01T00:12:54.670Z,1.45
2023-04-01T00:16:19.685Z,1.60
2023-04-01T00:19:23.206Z,1.50
2023-04-01T00:22:37.975Z,1.62
2023-04-01T00:25:39.685Z,1.77
2023-04-01T00:28:54.946Z,1.60
2023-04-01T00:32:04.967Z,1.73
2023-04-01T00:35:19.980Z,1.67
2023-04-01T00:38:21.957Z,1.80
2023-04-01T00:41:43.943Z,1.70
2023-04-01T00:44:51.581Z,2.00
2023-04-01T00:48:11.978Z,1.73
2023-04-01T00:51:21.313Z,1.48
2023-04-01T00:54:37.921Z,1.60
2023-04-01T00:57:43.272Z,1.50
2023-04-01T01:00:59.062Z,1.60
2023-04-01T01:04:00.776Z,1.70
2023-04-01T01:07:35.980Z,1.48
2023-04-01T01:10:40.195Z,1.30
2023-04-01T01:14:04.301Z,1.90
2023-04-01T01:17:20.300Z,1.60
2023-04-01T01:20:56.657Z,1.40
2023-04-01T01:24:24.993Z,1.27
2023-04-01T01:27:42.194Z,1.25
2023-04-01T01:31:05.019Z,1.30
2023-04-01T01:34:34.945Z,1.52
2023-04-01T01:37:39.161Z,1.50
2023-04-01T01:40:58.071Z,1.70
2023-04-01T01:44:17.004Z,1.92
2023-04-01T01:47:24.884Z,1.37
2023-04-01T01:50:40.965Z,1.40
2023-04-01T01:53:46.381Z,1.45
2023-04-01T01:57:12.996Z,1.35
2023-04-01T02:00:18.894Z,1.42
2023-04-01T02:03:37.992Z,1.20
2023-04-01T02:07:00.977Z,1.58
2023-04-01T02:10:02.897Z,1.42
2023-04-01T02:13:28.046Z,1.60
2023-04-01T02:16:36.079Z,1.40
2023-04-01T02:20:04.094Z,1.37
2023-04-01T02:23:07.890Z,1.20
2023-04-01T02:26:24.014Z,1.02
2023-04-01T02:29:33.007Z,1.10
2023-04-01T02:32:50.135Z,1.10
2023-04-01T02:35:59.860Z,1.00
2023-04-01T02:39:09.021Z,0.93
2023-04-01T02:42:24.274Z,1.00
2023-04-01T02:45:33.183Z,0.90
2023-04-01T02:48:42.146Z,1.00
2023-04-01T02:51:58.041Z,1.30
2023-04-01T02:55:13.993Z,1.02
2023-04-01T02:58:21.987Z,1.15
2023-04-01T03:01:30.519Z,0.80
2023-04-01T03:04:39.001Z,1.10
2023-04-01T03:07:54.009Z,0.83
2023-04-01T03:10:55.695Z,0.80
2023-04-01T03:14:09.999Z,0.90
2023-04-01T03:17:11.743Z,1.00
2023-04-01T03:20:26.021Z,0.77
2023-04-01T03:23:27.855Z,0.80
2023-04-01T03:26:43.038Z,0.73
2023-04-01T03:29:51.985Z,0.80
2023-04-01T03:33:00.259Z,1.20
2023-04-01T03:36:16.308Z,0.80
2023-04-01T03:39:18.232Z,0.60
2023-04-01T03:42:40.136Z,0.80
2023-04-01T03:45:50.329Z,1.20
2023-04-01T03:49:05.430Z,0.80
2023-04-01T03:52:17.006Z,0.90
2023-04-01T03:55:28.883Z,0.87
2023-04-01T03:58:37.046Z,0.80
2023-04-01T04:01:54.009Z,0.90
2023-04-01T04:04:55.687Z,0.77
2023-04-01T04:08:11.074Z,0.75
2023-04-01T04:11:12.850Z,0.90
2023-04-01T04:14:27.241Z,0.88
2023-04-01T04:17:36.076Z,0.80
2023-04-01T04:20:53.159Z,0.75
2023-04-01T04:24:08.473Z,1.20
2023-04-01T04:27:10.081Z,0.80
2023-04-01T04:30:25.107Z,1.08
2023-04-01T04:33:27.122Z,0.80
2023-04-01T04:36:42.793Z,1.00
2023-04-01T04:39:44.474Z,1.10
2023-04-01T04:43:09.109Z,0.93
2023-04-01T04:46:12.133Z,1.12
2023-04-01T04:49:30.052Z,0.95
2023-04-01T04:52:38.685Z,0.80
2023-04-01T04:55:55.303Z,1.02
2023-04-01T04:59:04.094Z,1.17
2023-04-01T05:02:19.111Z,0.73
2023-04-01T05:05:20.821Z,0.95
2023-04-01T05:08:35.074Z,1.25
2023-04-01T05:11:36.757Z,1.23
2023-04-01T05:14:52.067Z,1.03
2023-04-01T05:17:56.399Z,0.90
2023-04-01T05:21:12.030Z,1.27
2023-04-01T05:24:13.714Z,1.08
2023-04-01T05:27:29.085Z,0.80
2023-04-01T05:30:37.435Z,1.00
2023-04-01T05:33:52.056Z,1.33
2023-04-01T05:37:00.070Z,1.20
2023-04-01T05:40:22.065Z,1.20
2023-04-01T05:43:31.088Z,1.27
2023-04-01T05:46:39.921Z,1.83
2023-04-01T05:49:48.102Z,1.60
2023-04-01T05:53:03.082Z,1.23
2023-04-01T05:56:11.163Z,0.90
2023-04-01T05:59:21.046Z,1.67
2023-04-01T06:02:36.165Z,0.70
2023-04-01T06:05:48.105Z,1.40
2023-04-01T06:08:58.274Z,0.80
2023-04-01T06:12:27.077Z,1.05
2023-04-01T06:15:57.091Z,0.98
2023-04-01T06:19:22.070Z,0.90
2023-04-01T06:22:59.443Z,0.70
2023-04-01T06:26:27.197Z,0.70
2023-04-01T06:30:06.094Z,0.77
2023-04-01T06:33:44.456Z,1.45
2023-04-01T06:37:20.427Z,1.30
2023-04-01T06:41:07.004Z,1.00
2023-04-01T06:44:42.738Z,0.98
2023-04-01T06:48:15.432Z,0.62
2023-04-01T06:51:43.114Z,0.93
2023-04-01T06:55:03.022Z,1.20
2023-04-01T06:58:18.491Z,0.80
2023-04-01T07:01:47.177Z,1.10
2023-04-01T07:05:05.102Z,1.23
2023-04-01T07:08:11.659Z,1.60
2023-04-01T07:11:36.362Z,1.17
2023-04-01T07:14:52.131Z,1.13
2023-04-01T07:18:13.040Z,1.17
2023-04-01T07:21:37.288Z,0.93
2023-04-01T07:24:53.133Z,0.98
2023-04-01T07:28:09.101Z,1.57
2023-04-01T07:31:45.258Z,1.03
2023-04-01T07:35:08.177Z,0.73
2023-04-01T07:38:51.267Z,0.90
2023-04-01T07:42:14.763Z,0.93
2023-04-01T07:45:38.162Z,0.83
2023-04-01T07:49:10.859Z,1.30
2023-04-01T07:56:06.276Z,1.00
2023-04-01T07:59:38.177Z,1.05
2023-04-01T08:03:03.613Z,1.00
2023-04-01T08:06:38.163Z,1.27
2023-04-01T08:10:13.458Z,1.20
2023-04-01T08:13:54.141Z,1.37
2023-04-01T08:17:24.824Z,1.10
2023-04-01T08:20:47.885Z,1.10
2023-04-01T08:27:31.166Z,1.15
2023-04-01T08:30:51.203Z,1.50
2023-04-01T08:34:04.922Z,1.20
2023-04-01T08:37:28.369Z,1.30
2023-04-01T08:41:05.202Z,1.30
2023-04-01T08:44:35.648Z,1.10
2023-04-01T08:48:02.215Z,0.80
2023-04-01T08:51:53.194Z,1.10
2023-04-01T08:55:22.101Z,1.40
2023-04-01T08:59:06.195Z,1.20
2023-04-01T09:02:37.234Z,1.42
2023-04-01T09:10:07.521Z,1.42
2023-04-01T09:13:43.158Z,1.30
2023-04-01T09:17:12.063Z,1.10
2023-04-01T09:20:45.179Z,1.10
2023-04-01T09:24:19.045Z,4.35
2023-04-01T09:27:47.457Z,2.25
2023-04-01T09:31:19.305Z,1.50
2023-04-01T09:34:34.560Z,1.30
2023-04-01T09:38:02.965Z,2.75
2023-04-01T09:41:30.713Z,1.58
2023-04-01T09:45:09.247Z,1.00
2023-04-01T09:48:45.833Z,1.50
2023-04-01T09:52:07.489Z,1.40
2023-04-01T09:55:52.236Z,1.30
2023-04-01T09:59:25.198Z,1.58
2023-04-01T10:03:07.133Z,1.20
2023-04-01T10:06:35.185Z,1.40
2023-04-01T10:10:26.583Z,1.87
2023-04-01T10:14:07.544Z,1.45
2023-04-01T10:17:44.573Z,4.40
2023-04-01T10:25:06.090Z,1.30
2023-04-01T10:28:50.217Z,1.90
2023-04-01T10:32:21.273Z,2.55
2023-04-01T10:35:54.717Z,1.95
2023-04-01T10:39:25.260Z,1.45
2023-04-01T10:43:00.676Z,1.40
2023-04-01T10:46:57.422Z,1.90
2023-04-01T10:50:42.952Z,1.75
2023-04-01T10:54:12.284Z,2.37
2023-04-01T10:57:41.901Z,1.20
2023-04-01T11:01:23.270Z,1.47
2023-04-01T11:05:00.422Z,1.53
2023-04-01T11:12:29.113Z,1.27
2023-04-01T11:15:57.430Z,1.48
2023-04-01T11:20:05.967Z,1.93
2023-04-01T11:23:42.785Z,1.90
2023-04-01T11:27:15.736Z,2.80
2023-04-01T11:31:01.389Z,1.20
2023-04-01T11:34:28.468Z,1.37
2023-04-01T11:38:03.285Z,1.33
2023-04-01T11:41:41.382Z,1.00
2023-04-01T11:45:16.135Z,2.35
2023-04-01T11:48:55.707Z,1.30
2023-04-01T11:52:24.877Z,1.60
2023-04-01T11:55:51.411Z,1.80
2023-04-01T11:59:31.101Z,1.70
2023-04-01T12:03:09.402Z,1.83
2023-04-01T12:06:59.002Z,2.90
2023-04-01T12:10:22.880Z,1.80
2023-04-01T12:13:58.656Z,1.87
2023-04-01T12:17:35.317Z,1.80
2023-04-01T12:21:03.376Z,1.50
2023-04-01T12:24:30.853Z,2.03
2023-04-01T12:28:00.572Z,2.10
2023-04-01T12:31:25.077Z,1.60
2023-04-01T12:34:52.274Z,1.53
2023-04-01T12:38:26.284Z,1.00
2023-04-01T12:41:47.405Z,1.30
2023-04-01T12:45:26.359Z,1.95
2023-04-01T12:49:02.633Z,1.80
2023-04-01T12:53:02.424Z,2.20
2023-04-01T12:56:15.321Z,1.23
2023-04-01T12:59:52.064Z,1.30
2023-04-01T13:03:30.379Z,2.55
2023-04-01T13:07:06.634Z,1.67
2023-04-01T13:10:37.635Z,1.60
2023-04-01T13:14:15.892Z,1.60
2023-04-01T13:17:56.496Z,1.12
2023-04-01T13:21:34.354Z,1.50
2023-04-01T13:24:51.897Z,1.73
2023-04-01T13:28:22.477Z,1.43
2023-04-01T13:32:00.442Z,1.90
2023-04-01T13:35:36.587Z,1.48
2023-04-01T13:39:03.131Z,1.30
2023-04-01T13:42:28.145Z,1.50
2023-04-01T13:45:52.367Z,1.27
2023-04-01T13:49:31.361Z,1.20
2023-04-01T13:53:25.451Z,0.82
2023-04-01T13:56:57.464Z,1.12
2023-04-01T14:00:31.484Z,0.97
2023-04-01T14:03:51.524Z,1.67
2023-04-01T14:07:17.346Z,1.00
2023-04-01T14:10:54.333Z,1.67
2023-04-01T14:14:30.144Z,0.88
2023-04-01T14:21:49.404Z,1.03
2023-04-01T14:25:26.792Z,0.90
2023-04-01T14:29:02.445Z,0.90
2023-04-01T14:32:59.479Z,0.80
2023-04-01T14:36:39.957Z,1.90
2023-04-01T14:40:07.390Z,1.27
2023-04-01T14:43:59.391Z,1.40
2023-04-01T14:47:37.418Z,1.52
2023-04-01T14:50:56.376Z,1.20
2023-04-01T14:54:30.022Z,1.20
2023-04-01T14:57:46.718Z,1.20
2023-04-01T15:01:01.643Z,1.62
2023-04-01T15:04:48.465Z,1.50
2023-04-01T15:08:20.406Z,1.65
2023-04-01T15:11:49.095Z,1.33
2023-04-01T15:15:25.198Z,1.20
2023-04-01T15:19:00.606Z,1.80
2023-04-01T15:22:23.955Z,1.70
2023-04-01T15:25:56.417Z,1.55
2023-04-01T15:29:26.514Z,1.30
2023-04-01T15:33:10.624Z,2.03
2023-04-01T15:36:42.437Z,1.50
2023-04-01T15:44:08.462Z,1.50
2023-04-01T15:47:44.720Z,1.27
2023-04-01T15:51:16.944Z,1.10
2023-04-01T15:54:51.123Z,1.00
2023-04-01T16:01:59.090Z,1.10
2023-04-01T16:05:36.372Z,1.10
2023-04-01T16:09:14.515Z,1.00
2023-04-01T16:12:37.029Z,1.00
2023-04-01T16:16:15.792Z,8.20
2023-04-01T16:19:55.429Z,3.37
2023-04-01T16:23:02.795Z,2.50
2023-04-01T16:26:31.908Z,1.50
2023-04-01T16:29:50.521Z,1.52
2023-04-01T16:33:17.719Z,1.12
2023-04-01T16:36:39.755Z,1.60
2023-04-01T16:40:14.470Z,0.80
2023-04-01T16:44:02.264Z,1.70
2023-04-01T16:47:11.948Z,1.37
2023-04-01T16:50:33.205Z,1.30
2023-04-01T16:54:06.738Z,1.42
2023-04-01T16:57:58.195Z,1.60
2023-04-01T17:06:02.348Z,1.95
2023-04-01T17:09:50.157Z,1.50
2023-04-01T17:13:30.480Z,1.70
2023-04-01T17:17:08.164Z,1.80
2023-04-01T17:20:35.828Z,1.87
2023-04-01T17:24:25.118Z,1.83
2023-04-01T17:28:01.105Z,1.83
2023-04-01T17:31:40.836Z,3.53
2023-04-01T17:35:07.636Z,1.87
2023-04-01T17:38:52.364Z,2.08
2023-04-01T17:42:22.694Z,2.92
2023-04-01T17:45:54.697Z,8.13
2023-04-01T17:49:26.512Z,3.00
2023-04-01T17:52:45.348Z,2.85
2023-04-01T17:56:24.344Z,2.53
2023-04-01T17:59:58.388Z,3.40
2023-04-01T18:03:33.075Z,3.33
2023-04-01T18:07:28.409Z,3.10
2023-04-01T18:10:56.692Z,4.03
2023-04-01T18:14:46.169Z,2.50
2023-04-01T18:18:37.110Z,3.72
2023-04-01T18:21:47.671Z,2.60
2023-04-01T18:25:17.118Z,2.70
2023-04-01T18:28:35.722Z,2.35
2023-04-01T18:31:55.952Z,2.10
2023-04-01T18:35:30.458Z,2.55
2023-04-01T18:38:46.550Z,3.00
2023-04-01T18:42:10.108Z,3.80
2023-04-01T18:45:41.354Z,2.45
2023-04-01T18:48:53.069Z,2.95
2023-04-01T18:52:23.129Z,2.90
2023-04-01T18:55:34.400Z,3.27
2023-04-01T18:59:15.371Z,3.23
2023-04-01T19:02:36.245Z,3.95
2023-04-01T19:05:56.560Z,3.28
2023-04-01T19:09:36.386Z,3.28
2023-04-01T19:13:08.624Z,4.80
2023-04-01T19:20:47.348Z,2.60
2023-04-01T19:24:19.961Z,4.47
2023-04-01T19:27:35.405Z,3.22
2023-04-01T19:31:07.178Z,3.37
2023-04-01T19:34:32.430Z,2.90
2023-04-01T19:38:11.146Z,2.50
2023-04-01T19:41:42.322Z,2.95
2023-04-01T19:45:08.089Z,2.90
2023-04-01T19:48:46.273Z,4.07
2023-04-01T19:52:34.230Z,4.20
2023-04-01T19:55:58.951Z,3.20
2023-04-01T19:59:27.894Z,2.03
2023-04-01T20:03:02.592Z,2.87
2023-04-01T20:06:40.558Z,3.43
2023-04-01T20:10:00.138Z,1.97
2023-04-01T20:13:41.401Z,2.83
2023-04-01T20:17:10.512Z,2.42
2023-04-01T20:20:28.300Z,3.50
2023-04-01T20:23:46.399Z,2.60
2023-04-01T20:30:46.841Z,2.80
2023-04-01T20:34:19.478Z,2.50
2023-04-01T20:37:41.047Z,2.42
2023-04-01T20:41:09.660Z,2.27
2023-04-01T20:48:58.668Z,2.60
2023-04-01T20:52:32.280Z,1.80
2023-04-01T20:56:14.196Z,2.05
2023-04-01T20:59:50.233Z,3.60
2023-04-01T21:03:31.178Z,3.57
2023-04-01T21:06:58.713Z,3.70
2023-04-01T21:10:34.217Z,3.90
2023-04-01T21:14:04.354Z,3.78
2023-04-01T21:17:46.000Z,4.60
2023-04-01T21:21:22.239Z,3.87
2023-04-01T21:24:59.233Z,3.50
2023-04-01T21:28:22.017Z,4.12
2023-04-01T21:31:56.243Z,3.92
2023-04-01T21:35:19.498Z,4.13
2023-04-01T21:38:56.369Z,2.57
2023-04-01T21:46:10.620Z,3.17
2023-04-01T21:49:58.475Z,3.30
2023-04-01T21:53:35.598Z,2.13
2023-04-01T21:57:18.272Z,1.57
2023-04-01T22:00:39.557Z,1.67
2023-04-01T22:04:18.401Z,1.33
2023-04-01T22:07:22.799Z,1.60
2023-04-01T22:10:56.229Z,0.93
2023-04-01T22:14:24.938Z,1.73
2023-04-01T22:17:42.555Z,1.25
2023-04-01T22:21:08.239Z,3.30
2023-04-01T22:24:30.500Z,1.48
2023-04-01T22:28:05.258Z,1.03
2023-04-01T22:31:17.285Z,1.00
2023-04-01T22:34:55.885Z,1.70
2023-04-01T22:38:37.257Z,0.90
2023-04-01T22:42:29.573Z,0.93
2023-04-01T22:46:05.272Z,1.20
2023-04-01T22:49:29.266Z,1.43
2023-04-01T22:52:39.603Z,0.93
2023-04-01T22:55:59.385Z,0.88
2023-04-01T22:59:26.262Z,1.10
2023-04-01T23:02:47.316Z,1.10
2023-04-01T23:06:04.243Z,0.97
2023-04-01T23:09:27.290Z,1.30
2023-04-01T23:12:30.310Z,1.00
2023-04-01T23:15:46.299Z,0.88
2023-04-01T23:19:17.953Z,0.80
2023-04-01T23:22:47.281Z,0.70
2023-04-01T23:26:12.241Z,1.25
2023-04-01T23:29:22.706Z,0.80
2023-04-01T23:32:33.260Z,0.90
2023-04-01T23:35:57.391Z,0.80
2023-04-01T23:39:27.245Z,0.80
2023-04-01T23:42:39.269Z,0.68
2023-04-01T23:45:47.946Z,1.05
2023-04-01T23:48:56.562Z,0.90
2023-04-01T23:52:28.293Z,0.80
2023-04-01T23:55:42.929Z,0.80
2023-04-01T23:59:03.973Z,0.60
